Weather at Baton Rouge Metropolitan Airport

Public forecast

Using degrees Fahrenheit for public forecast. Weather courtesy of forecast.io.

Current aviation weather report (METAR) for Baton Rouge Metropolitan Airport

Report is more than 6 hours old.

2022/11/14 14:53 (retrieved 2 years ago)

KBTR 141453Z 06006KT 10SM OVC090 07/01 A3018 RMK AO2 SLP220 T00670006 51004

Aviation forecast (TAF) for Baton Rouge Metropolitan Airport

Forecast is more than 12 hours old.

2023/02/22 18:39 (retrieved 1 year ago)

TAF KBTR 221737Z 2218/2318 19020G38KT P6SM BKN025 FM222200 20019G31KT P6SM VCSH BKN025 FM230400 19011G22KT P6SM BKN008 FM230900 17006KT 3SM BR OVC003 FM231500 17009KT P6SM BKN015